LERS/REU METAR and TAF weather

Enter ICAO airport designator
Station Type Date Time Source
LERS METAR 2020/07/11 00:30 UTC NOAA

LERS 110030Z AUTO 00000KT 9999 ////// 21/18 Q1016


Station Type Date Time Source
LERS Decoded METAR 2020/07/11 00:30 UTC NOAA

Reus / Aeropuerto, Spain (LERS) 41-09N 001-10E 76M
Jul 10, 2020 - 08:30 PM EDT / 2020.07.11 0030 UTC
Wind: Calm:0
Visibility: greater than 7 mile(s):0
Temperature: 69 F (21 C)
Dew Point: 64 F (18 C)
Relative Humidity: 82%
Pressure (altimeter): 30.00 in. Hg (1016 hPa)
ob: LERS 110030Z AUTO 00000KT 9999 ////// 21/18 Q1016
cycle: 0

Station Type Date Time Source
LERS TAF 2020/07/10 21:30 UTC NOAA

TAF LERS 102000Z 1021/1121 VRB03KT 9999 FEW040 TX30/1112Z TN21/1105Z PROB30 1104/1109 30008KT
BECMG 1109/1112 18010KT
BECMG 1117/1119 VRB03KT

Example: see airport list